sensor_id;sensor_type;location;lat;lon;timestamp;P1;durP1;ratioP1;P2;durP2;ratioP2
55633;SDS011;41504;53.162;6.788;2022-07-24T00:00:06;5.28;;;2.40;;
55633;SDS011;41504;53.162;6.788;2022-07-24T00:02:33;5.38;;;2.67;;
55633;SDS011;41504;53.162;6.788;2022-07-24T00:04:59;4.63;;;2.60;;
55633;SDS011;41504;53.162;6.788;2022-07-24T00:07:26;5.13;;;2.60;;
55633;SDS011;41504;53.162;6.788;2022-07-24T00:09:53;4.95;;;2.65;;
55633;SDS011;41504;53.162;6.788;2022-07-24T00:12:19;4.72;;;2.97;;
55633;SDS011;41504;53.162;6.788;2022-07-24T00:14:45;5.28;;;2.63;;
55633;SDS011;41504;53.162;6.788;2022-07-24T00:17:11;6.32;;;3.00;;
55633;SDS011;41504;53.162;6.788;2022-07-24T00:19:37;6.65;;;2.90;;
55633;SDS011;41504;53.162;6.788;2022-07-24T00:22:02;5.75;;;3.05;;
55633;SDS011;41504;53.162;6.788;2022-07-24T00:24:29;7.07;;;3.00;;
55633;SDS011;41504;53.162;6.788;2022-07-24T00:26:55;5.00;;;2.80;;
55633;SDS011;41504;53.162;6.788;2022-07-24T00:29:20;5.53;;;2.95;;
55633;SDS011;41504;53.162;6.788;2022-07-24T00:31:46;5.40;;;2.90;;
55633;SDS011;41504;53.162;6.788;2022-07-24T00:34:12;5.45;;;3.30;;
55633;SDS011;41504;53.162;6.788;2022-07-24T00:36:38;5.20;;;3.10;;
55633;SDS011;41504;53.162;6.788;2022-07-24T00:39:07;5.40;;;3.25;;
55633;SDS011;41504;53.162;6.788;2022-07-24T00:41:32;5.00;;;3.08;;
55633;SDS011;41504;53.162;6.788;2022-07-24T00:44:16;5.07;;;2.97;;
55633;SDS011;41504;53.162;6.788;2022-07-24T00:46:43;5.75;;;3.40;;
55633;SDS011;41504;53.162;6.788;2022-07-24T00:49:11;6.15;;;3.10;;
55633;SDS011;41504;53.162;6.788;2022-07-24T00:51:39;6.10;;;2.95;;
55633;SDS011;41504;53.162;6.788;2022-07-24T00:54:06;4.95;;;3.25;;
55633;SDS011;41504;53.162;6.788;2022-07-24T00:56:33;5.40;;;3.10;;
55633;SDS011;41504;53.162;6.788;2022-07-24T00:59:00;6.82;;;3.70;;
55633;SDS011;41504;53.162;6.788;2022-07-24T01:01:26;5.78;;;3.28;;
55633;SDS011;41504;53.162;6.788;2022-07-24T01:03:52;5.55;;;3.58;;
55633;SDS011;41504;53.162;6.788;2022-07-24T01:06:18;6.20;;;3.53;;
55633;SDS011;41504;53.162;6.788;2022-07-24T01:08:44;6.10;;;3.80;;
55633;SDS011;41504;53.162;6.788;2022-07-24T01:11:11;6.10;;;3.90;;
55633;SDS011;41504;53.162;6.788;2022-07-24T01:13:38;6.75;;;4.10;;
55633;SDS011;41504;53.162;6.788;2022-07-24T01:16:05;6.43;;;4.07;;
55633;SDS011;41504;53.162;6.788;2022-07-24T01:18:31;5.63;;;3.75;;
55633;SDS011;41504;53.162;6.788;2022-07-24T01:20:57;7.32;;;3.83;;
55633;SDS011;41504;53.162;6.788;2022-07-24T01:23:23;6.53;;;3.70;;
55633;SDS011;41504;53.162;6.788;2022-07-24T01:25:49;6.55;;;3.78;;
55633;SDS011;41504;53.162;6.788;2022-07-24T01:28:16;6.13;;;3.92;;
55633;SDS011;41504;53.162;6.788;2022-07-24T01:30:42;6.90;;;3.78;;
55633;SDS011;41504;53.162;6.788;2022-07-24T01:33:07;6.95;;;3.75;;
55633;SDS011;41504;53.162;6.788;2022-07-24T01:35:34;5.75;;;3.97;;
55633;SDS011;41504;53.162;6.788;2022-07-24T01:37:59;5.65;;;3.97;;
55633;SDS011;41504;53.162;6.788;2022-07-24T01:40:25;5.63;;;3.78;;
55633;SDS011;41504;53.162;6.788;2022-07-24T01:42:51;5.85;;;3.85;;
55633;SDS011;41504;53.162;6.788;2022-07-24T01:45:17;6.45;;;3.88;;
55633;SDS011;41504;53.162;6.788;2022-07-24T01:47:43;6.65;;;3.78;;
55633;SDS011;41504;53.162;6.788;2022-07-24T01:50:13;5.47;;;3.85;;
55633;SDS011;41504;53.162;6.788;2022-07-24T01:52:39;6.90;;;3.88;;
55633;SDS011;41504;53.162;6.788;2022-07-24T01:55:05;5.28;;;3.80;;
55633;SDS011;41504;53.162;6.788;2022-07-24T01:57:32;5.47;;;3.95;;
55633;SDS011;41504;53.162;6.788;2022-07-24T01:59:58;5.95;;;3.92;;
55633;SDS011;41504;53.162;6.788;2022-07-24T02:02:24;6.25;;;3.88;;
55633;SDS011;41504;53.162;6.788;2022-07-24T02:04:50;6.70;;;3.92;;
55633;SDS011;41504;53.162;6.788;2022-07-24T02:07:16;7.05;;;4.07;;
55633;SDS011;41504;53.162;6.788;2022-07-24T02:09:42;8.13;;;4.10;;
55633;SDS011;41504;53.162;6.788;2022-07-24T02:12:08;6.13;;;3.85;;
55633;SDS011;41504;53.162;6.788;2022-07-24T02:14:33;7.13;;;4.45;;
55633;SDS011;41504;53.162;6.788;2022-07-24T02:16:59;7.10;;;4.20;;
55633;SDS011;41504;53.162;6.788;2022-07-24T02:19:25;7.18;;;4.10;;
55633;SDS011;41504;53.162;6.788;2022-07-24T02:21:50;7.82;;;4.47;;
55633;SDS011;41504;53.162;6.788;2022-07-24T02:24:16;7.95;;;4.30;;
55633;SDS011;41504;53.162;6.788;2022-07-24T02:26:42;6.85;;;4.40;;
55633;SDS011;41504;53.162;6.788;2022-07-24T02:29:08;6.80;;;4.32;;
55633;SDS011;41504;53.162;6.788;2022-07-24T02:31:33;7.90;;;4.40;;
55633;SDS011;41504;53.162;6.788;2022-07-24T02:33:59;7.00;;;4.38;;
55633;SDS011;41504;53.162;6.788;2022-07-24T02:36:25;7.93;;;4.28;;
55633;SDS011;41504;53.162;6.788;2022-07-24T02:38:51;9.35;;;4.38;;
55633;SDS011;41504;53.162;6.788;2022-07-24T02:41:17;7.22;;;4.57;;
55633;SDS011;41504;53.162;6.788;2022-07-24T02:43:43;6.65;;;4.57;;
55633;SDS011;41504;53.162;6.788;2022-07-24T02:46:09;7.38;;;4.45;;
55633;SDS011;41504;53.162;6.788;2022-07-24T02:48:34;7.00;;;4.63;;
55633;SDS011;41504;53.162;6.788;2022-07-24T02:51:00;7.07;;;4.45;;
55633;SDS011;41504;53.162;6.788;2022-07-24T02:53:26;7.57;;;4.70;;
55633;SDS011;41504;53.162;6.788;2022-07-24T02:55:51;6.90;;;4.60;;
55633;SDS011;41504;53.162;6.788;2022-07-24T02:58:17;8.73;;;4.65;;
55633;SDS011;41504;53.162;6.788;2022-07-24T03:00:43;6.68;;;4.53;;
55633;SDS011;41504;53.162;6.788;2022-07-24T03:03:09;7.10;;;4.43;;
55633;SDS011;41504;53.162;6.788;2022-07-24T03:05:35;6.38;;;4.80;;
55633;SDS011;41504;53.162;6.788;2022-07-24T03:08:01;7.65;;;4.65;;
55633;SDS011;41504;53.162;6.788;2022-07-24T03:10:26;7.75;;;4.50;;
55633;SDS011;41504;53.162;6.788;2022-07-24T03:12:52;9.77;;;5.00;;
55633;SDS011;41504;53.162;6.788;2022-07-24T03:15:18;7.50;;;4.72;;
55633;SDS011;41504;53.162;6.788;2022-07-24T03:17:50;7.63;;;5.00;;
55633;SDS011;41504;53.162;6.788;2022-07-24T03:20:18;7.63;;;5.25;;
55633;SDS011;41504;53.162;6.788;2022-07-24T03:22:44;7.38;;;4.90;;
55633;SDS011;41504;53.162;6.788;2022-07-24T03:25:11;7.25;;;4.53;;
55633;SDS011;41504;53.162;6.788;2022-07-24T03:27:36;6.93;;;5.18;;
55633;SDS011;41504;53.162;6.788;2022-07-24T03:30:03;8.40;;;5.30;;
55633;SDS011;41504;53.162;6.788;2022-07-24T03:32:29;7.40;;;5.50;;
55633;SDS011;41504;53.162;6.788;2022-07-24T03:34:55;8.90;;;5.30;;
55633;SDS011;41504;53.162;6.788;2022-07-24T03:37:21;8.38;;;5.30;;
55633;SDS011;41504;53.162;6.788;2022-07-24T03:39:47;8.60;;;5.25;;
55633;SDS011;41504;53.162;6.788;2022-07-24T03:42:12;7.50;;;5.22;;
55633;SDS011;41504;53.162;6.788;2022-07-24T03:44:38;7.15;;;5.20;;
55633;SDS011;41504;53.162;6.788;2022-07-24T03:47:04;7.00;;;4.90;;
55633;SDS011;41504;53.162;6.788;2022-07-24T03:49:29;8.80;;;5.38;;
55633;SDS011;41504;53.162;6.788;2022-07-24T03:51:55;7.78;;;5.10;;
55633;SDS011;41504;53.162;6.788;2022-07-24T03:54:21;7.78;;;5.40;;
55633;SDS011;41504;53.162;6.788;2022-07-24T03:56:47;7.22;;;4.93;;
55633;SDS011;41504;53.162;6.788;2022-07-24T03:59:13;7.75;;;4.70;;
55633;SDS011;41504;53.162;6.788;2022-07-24T04:01:39;8.70;;;5.07;;
55633;SDS011;41504;53.162;6.788;2022-07-24T04:04:05;7.75;;;5.38;;
55633;SDS011;41504;53.162;6.788;2022-07-24T04:06:31;9.07;;;5.10;;
55633;SDS011;41504;53.162;6.788;2022-07-24T04:08:57;8.48;;;5.28;;
55633;SDS011;41504;53.162;6.788;2022-07-24T04:11:24;8.75;;;5.15;;
55633;SDS011;41504;53.162;6.788;2022-07-24T04:13:50;7.57;;;5.10;;
55633;SDS011;41504;53.162;6.788;2022-07-24T04:16:16;7.13;;;5.13;;
55633;SDS011;41504;53.162;6.788;2022-07-24T04:18:42;8.77;;;5.15;;
55633;SDS011;41504;53.162;6.788;2022-07-24T04:21:08;7.97;;;5.10;;
55633;SDS011;41504;53.162;6.788;2022-07-24T04:23:34;9.02;;;5.13;;
55633;SDS011;41504;53.162;6.788;2022-07-24T04:26:00;8.60;;;4.82;;
55633;SDS011;41504;53.162;6.788;2022-07-24T04:28:26;7.85;;;5.10;;
55633;SDS011;41504;53.162;6.788;2022-07-24T04:30:51;8.07;;;5.20;;
55633;SDS011;41504;53.162;6.788;2022-07-24T04:33:17;8.18;;;5.20;;
55633;SDS011;41504;53.162;6.788;2022-07-24T04:35:43;8.25;;;5.45;;
55633;SDS011;41504;53.162;6.788;2022-07-24T04:38:09;8.13;;;5.20;;
55633;SDS011;41504;53.162;6.788;2022-07-24T04:40:35;7.72;;;5.32;;
55633;SDS011;41504;53.162;6.788;2022-07-24T04:43:01;7.22;;;4.97;;
55633;SDS011;41504;53.162;6.788;2022-07-24T04:45:26;7.30;;;5.00;;
55633;SDS011;41504;53.162;6.788;2022-07-24T04:47:52;9.38;;;5.88;;
55633;SDS011;41504;53.162;6.788;2022-07-24T04:50:18;8.57;;;5.20;;
55633;SDS011;41504;53.162;6.788;2022-07-24T04:52:43;7.50;;;5.60;;
55633;SDS011;41504;53.162;6.788;2022-07-24T04:55:09;9.07;;;5.43;;
55633;SDS011;41504;53.162;6.788;2022-07-24T04:57:35;7.50;;;5.30;;
55633;SDS011;41504;53.162;6.788;2022-07-24T05:00:02;9.85;;;5.18;;
55633;SDS011;41504;53.162;6.788;2022-07-24T05:02:29;7.25;;;5.25;;
55633;SDS011;41504;53.162;6.788;2022-07-24T05:04:54;10.48;;;5.60;;
55633;SDS011;41504;53.162;6.788;2022-07-24T05:07:20;9.13;;;5.65;;
55633;SDS011;41504;53.162;6.788;2022-07-24T05:09:46;7.32;;;5.20;;
55633;SDS011;41504;53.162;6.788;2022-07-24T05:12:11;8.35;;;5.85;;
55633;SDS011;41504;53.162;6.788;2022-07-24T05:14:37;8.63;;;5.82;;
55633;SDS011;41504;53.162;6.788;2022-07-24T05:17:03;8.68;;;5.65;;
55633;SDS011;41504;53.162;6.788;2022-07-24T05:19:29;8.13;;;5.65;;
55633;SDS011;41504;53.162;6.788;2022-07-24T05:21:54;9.18;;;5.63;;
55633;SDS011;41504;53.162;6.788;2022-07-24T05:24:20;7.82;;;5.53;;
55633;SDS011;41504;53.162;6.788;2022-07-24T05:26:46;7.22;;;5.47;;
55633;SDS011;41504;53.162;6.788;2022-07-24T05:29:11;8.55;;;5.78;;
55633;SDS011;41504;53.162;6.788;2022-07-24T05:31:37;11.27;;;5.78;;
55633;SDS011;41504;53.162;6.788;2022-07-24T05:34:03;8.82;;;5.30;;
55633;SDS011;41504;53.162;6.788;2022-07-24T05:36:29;8.43;;;6.18;;
55633;SDS011;41504;53.162;6.788;2022-07-24T05:38:54;7.70;;;5.50;;
55633;SDS011;41504;53.162;6.788;2022-07-24T05:41:20;10.75;;;6.10;;
55633;SDS011;41504;53.162;6.788;2022-07-24T05:43:46;7.97;;;6.05;;
55633;SDS011;41504;53.162;6.788;2022-07-24T05:46:12;9.25;;;5.72;;
55633;SDS011;41504;53.162;6.788;2022-07-24T05:48:37;7.57;;;5.60;;
55633;SDS011;41504;53.162;6.788;2022-07-24T05:51:03;8.18;;;5.55;;
55633;SDS011;41504;53.162;6.788;2022-07-24T05:53:29;8.48;;;5.95;;
55633;SDS011;41504;53.162;6.788;2022-07-24T05:55:54;9.25;;;5.50;;
55633;SDS011;41504;53.162;6.788;2022-07-24T05:58:20;9.02;;;5.78;;
55633;SDS011;41504;53.162;6.788;2022-07-24T06:00:46;9.30;;;5.47;;
55633;SDS011;41504;53.162;6.788;2022-07-24T06:03:12;7.07;;;5.05;;
55633;SDS011;41504;53.162;6.788;2022-07-24T06:05:37;8.65;;;5.90;;
55633;SDS011;41504;53.162;6.788;2022-07-24T06:08:03;8.05;;;5.53;;
55633;SDS011;41504;53.162;6.788;2022-07-24T06:10:30;7.75;;;5.50;;
55633;SDS011;41504;53.162;6.788;2022-07-24T06:12:56;9.32;;;5.60;;
55633;SDS011;41504;53.162;6.788;2022-07-24T06:15:23;8.63;;;5.47;;
55633;SDS011;41504;53.162;6.788;2022-07-24T06:17:49;8.77;;;6.30;;
55633;SDS011;41504;53.162;6.788;2022-07-24T06:20:15;8.80;;;6.13;;
55633;SDS011;41504;53.162;6.788;2022-07-24T06:22:42;10.60;;;6.57;;
55633;SDS011;41504;53.162;6.788;2022-07-24T06:25:09;9.77;;;5.85;;
55633;SDS011;41504;53.162;6.788;2022-07-24T06:27:45;8.55;;;7.00;;
55633;SDS011;41504;53.162;6.788;2022-07-24T06:30:15;8.48;;;6.00;;
55633;SDS011;41504;53.162;6.788;2022-07-24T06:32:43;9.32;;;6.65;;
55633;SDS011;41504;53.162;6.788;2022-07-24T06:35:09;8.38;;;6.57;;
55633;SDS011;41504;53.162;6.788;2022-07-24T06:37:35;9.38;;;6.40;;
55633;SDS011;41504;53.162;6.788;2022-07-24T06:40:01;9.57;;;6.68;;
55633;SDS011;41504;53.162;6.788;2022-07-24T06:42:28;11.77;;;6.47;;
55633;SDS011;41504;53.162;6.788;2022-07-24T06:44:54;8.77;;;6.63;;
55633;SDS011;41504;53.162;6.788;2022-07-24T06:47:19;9.23;;;6.22;;
55633;SDS011;41504;53.162;6.788;2022-07-24T06:49:45;10.43;;;7.20;;
55633;SDS011;41504;53.162;6.788;2022-07-24T06:52:11;9.82;;;6.93;;
55633;SDS011;41504;53.162;6.788;2022-07-24T06:54:37;10.50;;;6.72;;
55633;SDS011;41504;53.162;6.788;2022-07-24T06:57:02;11.05;;;6.90;;
55633;SDS011;41504;53.162;6.788;2022-07-24T06:59:28;11.93;;;7.05;;
55633;SDS011;41504;53.162;6.788;2022-07-24T07:01:54;12.55;;;8.45;;
55633;SDS011;41504;53.162;6.788;2022-07-24T07:04:20;10.90;;;8.45;;
55633;SDS011;41504;53.162;6.788;2022-07-24T07:06:45;12.48;;;8.52;;
55633;SDS011;41504;53.162;6.788;2022-07-24T07:09:11;11.85;;;8.73;;
55633;SDS011;41504;53.162;6.788;2022-07-24T07:11:37;13.68;;;9.23;;
55633;SDS011;41504;53.162;6.788;2022-07-24T07:14:03;13.18;;;9.70;;
55633;SDS011;41504;53.162;6.788;2022-07-24T07:16:29;13.38;;;9.75;;
55633;SDS011;41504;53.162;6.788;2022-07-24T07:18:55;13.20;;;9.73;;
55633;SDS011;41504;53.162;6.788;2022-07-24T07:21:21;12.90;;;9.82;;
55633;SDS011;41504;53.162;6.788;2022-07-24T07:23:46;13.60;;;9.57;;
55633;SDS011;41504;53.162;6.788;2022-07-24T07:26:12;12.25;;;9.75;;
55633;SDS011;41504;53.162;6.788;2022-07-24T07:28:38;12.52;;;10.23;;
55633;SDS011;41504;53.162;6.788;2022-07-24T07:31:03;14.25;;;10.18;;
55633;SDS011;41504;53.162;6.788;2022-07-24T07:33:29;13.73;;;10.05;;
55633;SDS011;41504;53.162;6.788;2022-07-24T07:35:55;12.65;;;9.90;;
55633;SDS011;41504;53.162;6.788;2022-07-24T07:38:21;13.50;;;10.80;;
55633;SDS011;41504;53.162;6.788;2022-07-24T07:40:46;14.13;;;9.68;;
55633;SDS011;41504;53.162;6.788;2022-07-24T07:43:12;13.43;;;10.35;;
55633;SDS011;41504;53.162;6.788;2022-07-24T07:45:38;15.02;;;10.20;;
55633;SDS011;41504;53.162;6.788;2022-07-24T07:48:04;11.30;;;9.85;;
55633;SDS011;41504;53.162;6.788;2022-07-24T07:50:29;12.20;;;9.23;;
55633;SDS011;41504;53.162;6.788;2022-07-24T07:52:55;12.40;;;8.93;;
55633;SDS011;41504;53.162;6.788;2022-07-24T07:55:21;15.70;;;11.00;;
55633;SDS011;41504;53.162;6.788;2022-07-24T07:57:47;13.40;;;10.70;;
55633;SDS011;41504;53.162;6.788;2022-07-24T08:00:14;15.77;;;10.73;;
55633;SDS011;41504;53.162;6.788;2022-07-24T08:02:40;15.80;;;10.88;;
55633;SDS011;41504;53.162;6.788;2022-07-24T08:05:06;12.63;;;9.60;;
55633;SDS011;41504;53.162;6.788;2022-07-24T08:07:32;13.32;;;9.50;;
55633;SDS011;41504;53.162;6.788;2022-07-24T08:09:58;11.40;;;8.32;;
55633;SDS011;41504;53.162;6.788;2022-07-24T08:12:24;11.98;;;9.10;;
55633;SDS011;41504;53.162;6.788;2022-07-24T08:14:49;12.82;;;8.40;;
55633;SDS011;41504;53.162;6.788;2022-07-24T08:17:15;12.45;;;8.68;;
55633;SDS011;41504;53.162;6.788;2022-07-24T08:19:41;11.60;;;7.78;;
55633;SDS011;41504;53.162;6.788;2022-07-24T08:22:07;11.65;;;7.70;;
55633;SDS011;41504;53.162;6.788;2022-07-24T08:24:32;10.25;;;6.82;;
55633;SDS011;41504;53.162;6.788;2022-07-24T08:26:58;10.30;;;7.40;;
55633;SDS011;41504;53.162;6.788;2022-07-24T08:29:24;8.75;;;6.68;;
55633;SDS011;41504;53.162;6.788;2022-07-24T08:31:51;7.53;;;5.35;;
55633;SDS011;41504;53.162;6.788;2022-07-24T08:34:17;9.30;;;5.20;;
55633;SDS011;41504;53.162;6.788;2022-07-24T08:36:42;7.13;;;4.40;;
55633;SDS011;41504;53.162;6.788;2022-07-24T08:39:13;6.68;;;4.00;;
55633;SDS011;41504;53.162;6.788;2022-07-24T08:41:40;5.88;;;3.80;;
55633;SDS011;41504;53.162;6.788;2022-07-24T08:44:09;6.57;;;3.30;;
55633;SDS011;41504;53.162;6.788;2022-07-24T08:46:39;5.40;;;3.05;;
55633;SDS011;41504;53.162;6.788;2022-07-24T08:49:07;5.22;;;3.20;;
55633;SDS011;41504;53.162;6.788;2022-07-24T08:51:36;5.30;;;3.60;;
55633;SDS011;41504;53.162;6.788;2022-07-24T08:54:05;5.35;;;3.40;;
55633;SDS011;41504;53.162;6.788;2022-07-24T08:56:31;6.40;;;3.28;;
55633;SDS011;41504;53.162;6.788;2022-07-24T08:59:01;5.55;;;3.40;;
55633;SDS011;41504;53.162;6.788;2022-07-24T09:01:28;6.22;;;3.47;;
55633;SDS011;41504;53.162;6.788;2022-07-24T09:03:54;7.05;;;3.72;;
55633;SDS011;41504;53.162;6.788;2022-07-24T09:06:20;7.13;;;3.70;;
55633;SDS011;41504;53.162;6.788;2022-07-24T09:09:02;6.72;;;3.80;;
55633;SDS011;41504;53.162;6.788;2022-07-24T09:11:29;6.63;;;3.60;;
55633;SDS011;41504;53.162;6.788;2022-07-24T09:13:59;5.60;;;3.65;;
55633;SDS011;41504;53.162;6.788;2022-07-24T09:16:45;6.88;;;3.53;;
55633;SDS011;41504;53.162;6.788;2022-07-24T09:19:11;5.65;;;3.15;;
55633;SDS011;41504;53.162;6.788;2022-07-24T09:21:39;5.70;;;3.40;;
55633;SDS011;41504;53.162;6.788;2022-07-24T09:26:43;5.55;;;3.50;;
55633;SDS011;41504;53.162;6.788;2022-07-24T09:29:17;5.75;;;3.70;;
55633;SDS011;41504;53.162;6.788;2022-07-24T09:34:21;5.70;;;3.75;;
55633;SDS011;41504;53.162;6.788;2022-07-24T09:36:55;5.32;;;3.80;;
55633;SDS011;41504;53.162;6.788;2022-07-24T09:39:26;5.75;;;3.63;;
55633;SDS011;41504;53.162;6.788;2022-07-24T09:41:54;5.28;;;3.28;;
55633;SDS011;41504;53.162;6.788;2022-07-24T09:44:22;7.07;;;3.80;;
55633;SDS011;41504;53.162;6.788;2022-07-24T09:46:54;6.72;;;3.70;;
55633;SDS011;41504;53.162;6.788;2022-07-24T09:49:22;5.82;;;3.33;;
55633;SDS011;41504;53.162;6.788;2022-07-24T09:57:40;5.22;;;3.10;;
55633;SDS011;41504;53.162;6.788;2022-07-24T09:59:59;7.00;;;3.38;;
55633;SDS011;41504;53.162;6.788;2022-07-24T10:02:29;5.40;;;3.42;;
55633;SDS011;41504;53.162;6.788;2022-07-24T10:04:58;9.90;;;3.90;;
55633;SDS011;41504;53.162;6.788;2022-07-24T10:07:25;5.82;;;3.42;;
55633;SDS011;41504;53.162;6.788;2022-07-24T10:09:53;5.18;;;3.50;;
55633;SDS011;41504;53.162;6.788;2022-07-24T10:12:23;5.65;;;3.42;;
55633;SDS011;41504;53.162;6.788;2022-07-24T10:14:53;6.53;;;3.50;;
55633;SDS011;41504;53.162;6.788;2022-07-24T10:17:20;4.60;;;3.25;;
55633;SDS011;41504;53.162;6.788;2022-07-24T10:19:48;5.22;;;3.35;;
55633;SDS011;41504;53.162;6.788;2022-07-24T10:22:20;5.95;;;3.28;;
55633;SDS011;41504;53.162;6.788;2022-07-24T10:27:32;5.68;;;2.95;;
55633;SDS011;41504;53.162;6.788;2022-07-24T10:30:00;6.65;;;3.45;;
55633;SDS011;41504;53.162;6.788;2022-07-24T10:32:31;5.88;;;3.20;;
55633;SDS011;41504;53.162;6.788;2022-07-24T10:35:02;6.88;;;3.38;;
55633;SDS011;41504;53.162;6.788;2022-07-24T10:45:30;5.10;;;3.30;;
55633;SDS011;41504;53.162;6.788;2022-07-24T10:47:56;5.57;;;3.30;;
55633;SDS011;41504;53.162;6.788;2022-07-24T10:50:22;5.95;;;3.30;;
55633;SDS011;41504;53.162;6.788;2022-07-24T10:52:48;7.07;;;3.10;;
55633;SDS011;41504;53.162;6.788;2022-07-24T10:57:58;4.88;;;3.05;;
55633;SDS011;41504;53.162;6.788;2022-07-24T11:05:34;6.07;;;2.97;;
55633;SDS011;41504;53.162;6.788;2022-07-24T11:10:49;4.50;;;2.80;;
55633;SDS011;41504;53.162;6.788;2022-07-24T11:18:36;7.13;;;3.25;;
55633;SDS011;41504;53.162;6.788;2022-07-24T11:21:02;7.18;;;3.13;;
55633;SDS011;41504;53.162;6.788;2022-07-24T11:23:28;4.07;;;2.60;;
55633;SDS011;41504;53.162;6.788;2022-07-24T11:31:58;5.05;;;2.67;;
55633;SDS011;41504;53.162;6.788;2022-07-24T11:34:26;5.80;;;2.92;;
55633;SDS011;41504;53.162;6.788;2022-07-24T11:36:54;3.83;;;2.50;;
55633;SDS011;41504;53.162;6.788;2022-07-24T11:39:42;5.40;;;2.80;;
55633;SDS011;41504;53.162;6.788;2022-07-24T11:42:13;5.40;;;2.70;;
55633;SDS011;41504;53.162;6.788;2022-07-24T11:44:41;5.07;;;2.83;;
55633;SDS011;41504;53.162;6.788;2022-07-24T11:47:12;5.68;;;3.08;;
55633;SDS011;41504;53.162;6.788;2022-07-24T11:52:13;6.15;;;2.90;;
55633;SDS011;41504;53.162;6.788;2022-07-24T11:54:43;4.45;;;2.50;;
55633;SDS011;41504;53.162;6.788;2022-07-24T11:57:23;5.22;;;3.00;;
55633;SDS011;41504;53.162;6.788;2022-07-24T11:59:51;5.10;;;3.08;;
55633;SDS011;41504;53.162;6.788;2022-07-24T12:02:17;5.68;;;3.25;;
55633;SDS011;41504;53.162;6.788;2022-07-24T12:04:44;7.30;;;3.13;;
55633;SDS011;41504;53.162;6.788;2022-07-24T12:07:29;5.57;;;2.88;;
55633;SDS011;41504;53.162;6.788;2022-07-24T12:09:57;4.95;;;2.92;;
55633;SDS011;41504;53.162;6.788;2022-07-24T12:12:28;4.30;;;2.85;;
55633;SDS011;41504;53.162;6.788;2022-07-24T12:15:09;4.97;;;2.97;;
55633;SDS011;41504;53.162;6.788;2022-07-24T12:20:25;5.70;;;3.35;;
55633;SDS011;41504;53.162;6.788;2022-07-24T12:22:57;6.00;;;2.90;;
55633;SDS011;41504;53.162;6.788;2022-07-24T12:25:23;6.18;;;3.13;;
55633;SDS011;41504;53.162;6.788;2022-07-24T12:27:49;4.90;;;2.58;;
55633;SDS011;41504;53.162;6.788;2022-07-24T12:30:32;5.13;;;3.17;;
55633;SDS011;41504;53.162;6.788;2022-07-24T12:33:09;6.55;;;3.13;;
55633;SDS011;41504;53.162;6.788;2022-07-24T12:35:57;4.50;;;2.92;;
55633;SDS011;41504;53.162;6.788;2022-07-24T12:39:07;6.10;;;3.00;;
55633;SDS011;41504;53.162;6.788;2022-07-24T12:41:26;7.10;;;2.75;;
55633;SDS011;41504;53.162;6.788;2022-07-24T12:51:26;5.40;;;2.90;;
55633;SDS011;41504;53.162;6.788;2022-07-24T12:53:53;4.68;;;2.63;;
55633;SDS011;41504;53.162;6.788;2022-07-24T12:56:21;4.88;;;2.70;;
55633;SDS011;41504;53.162;6.788;2022-07-24T13:01:17;6.07;;;2.60;;
55633;SDS011;41504;53.162;6.788;2022-07-24T13:03:49;4.60;;;2.92;;
55633;SDS011;41504;53.162;6.788;2022-07-24T13:06:31;5.00;;;3.05;;
55633;SDS011;41504;53.162;6.788;2022-07-24T13:08:57;6.15;;;3.03;;
55633;SDS011;41504;53.162;6.788;2022-07-24T13:11:23;5.88;;;3.05;;
55633;SDS011;41504;53.162;6.788;2022-07-24T13:13:48;4.88;;;3.15;;
55633;SDS011;41504;53.162;6.788;2022-07-24T13:16:14;4.95;;;3.20;;
55633;SDS011;41504;53.162;6.788;2022-07-24T13:18:40;4.95;;;2.75;;
55633;SDS011;41504;53.162;6.788;2022-07-24T13:21:06;4.72;;;2.90;;
55633;SDS011;41504;53.162;6.788;2022-07-24T13:23:31;5.15;;;3.00;;
55633;SDS011;41504;53.162;6.788;2022-07-24T13:25:57;4.63;;;2.60;;
55633;SDS011;41504;53.162;6.788;2022-07-24T13:28:23;5.82;;;2.80;;
55633;SDS011;41504;53.162;6.788;2022-07-24T13:30:48;5.25;;;2.85;;
55633;SDS011;41504;53.162;6.788;2022-07-24T13:33:14;6.30;;;2.78;;
55633;SDS011;41504;53.162;6.788;2022-07-24T13:35:40;5.10;;;2.70;;
55633;SDS011;41504;53.162;6.788;2022-07-24T13:38:05;5.60;;;3.20;;
55633;SDS011;41504;53.162;6.788;2022-07-24T13:40:31;5.68;;;2.90;;
55633;SDS011;41504;53.162;6.788;2022-07-24T13:42:57;5.13;;;2.90;;
55633;SDS011;41504;53.162;6.788;2022-07-24T13:45:23;5.60;;;2.90;;
55633;SDS011;41504;53.162;6.788;2022-07-24T13:47:48;4.25;;;2.65;;
55633;SDS011;41504;53.162;6.788;2022-07-24T13:50:14;5.47;;;3.03;;
55633;SDS011;41504;53.162;6.788;2022-07-24T13:52:40;6.65;;;2.70;;
55633;SDS011;41504;53.162;6.788;2022-07-24T13:55:06;4.82;;;2.60;;
55633;SDS011;41504;53.162;6.788;2022-07-24T13:57:32;4.85;;;2.90;;
55633;SDS011;41504;53.162;6.788;2022-07-24T13:59:58;6.75;;;2.75;;
55633;SDS011;41504;53.162;6.788;2022-07-24T14:02:24;4.32;;;2.53;;
55633;SDS011;41504;53.162;6.788;2022-07-24T14:04:50;5.72;;;2.92;;
55633;SDS011;41504;53.162;6.788;2022-07-24T14:07:15;7.88;;;3.38;;
55633;SDS011;41504;53.162;6.788;2022-07-24T14:09:41;6.20;;;2.88;;
55633;SDS011;41504;53.162;6.788;2022-07-24T14:12:07;4.80;;;2.55;;
55633;SDS011;41504;53.162;6.788;2022-07-24T14:14:33;4.40;;;2.90;;
55633;SDS011;41504;53.162;6.788;2022-07-24T14:16:59;5.07;;;2.80;;
55633;SDS011;41504;53.162;6.788;2022-07-24T14:19:24;6.28;;;3.20;;
55633;SDS011;41504;53.162;6.788;2022-07-24T14:21:50;5.50;;;3.17;;
55633;SDS011;41504;53.162;6.788;2022-07-24T14:24:17;5.00;;;2.95;;
55633;SDS011;41504;53.162;6.788;2022-07-24T14:26:44;5.43;;;2.70;;
55633;SDS011;41504;53.162;6.788;2022-07-24T14:29:10;4.35;;;2.80;;
55633;SDS011;41504;53.162;6.788;2022-07-24T14:31:36;4.50;;;2.72;;
55633;SDS011;41504;53.162;6.788;2022-07-24T14:34:02;4.20;;;2.65;;
55633;SDS011;41504;53.162;6.788;2022-07-24T14:36:28;4.63;;;2.90;;
55633;SDS011;41504;53.162;6.788;2022-07-24T14:38:54;4.65;;;2.85;;
55633;SDS011;41504;53.162;6.788;2022-07-24T14:41:20;5.88;;;3.22;;
55633;SDS011;41504;53.162;6.788;2022-07-24T14:43:46;5.13;;;2.90;;
55633;SDS011;41504;53.162;6.788;2022-07-24T14:46:11;4.97;;;3.13;;
55633;SDS011;41504;53.162;6.788;2022-07-24T14:48:37;4.43;;;2.75;;
55633;SDS011;41504;53.162;6.788;2022-07-24T14:51:03;4.93;;;3.08;;
55633;SDS011;41504;53.162;6.788;2022-07-24T14:53:28;6.10;;;2.70;;
55633;SDS011;41504;53.162;6.788;2022-07-24T14:55:54;6.07;;;3.10;;
55633;SDS011;41504;53.162;6.788;2022-07-24T14:58:20;5.35;;;3.25;;
55633;SDS011;41504;53.162;6.788;2022-07-24T15:00:45;4.15;;;2.53;;
55633;SDS011;41504;53.162;6.788;2022-07-24T15:03:13;4.55;;;2.60;;
55633;SDS011;41504;53.162;6.788;2022-07-24T15:05:40;5.07;;;2.92;;
55633;SDS011;41504;53.162;6.788;2022-07-24T15:08:05;6.57;;;2.65;;
55633;SDS011;41504;53.162;6.788;2022-07-24T15:10:31;5.05;;;2.90;;
55633;SDS011;41504;53.162;6.788;2022-07-24T15:12:57;6.13;;;4.50;;
55633;SDS011;41504;53.162;6.788;2022-07-24T15:15:22;4.70;;;2.60;;
55633;SDS011;41504;53.162;6.788;2022-07-24T15:17:48;5.22;;;3.20;;
55633;SDS011;41504;53.162;6.788;2022-07-24T15:20:14;6.30;;;4.38;;
55633;SDS011;41504;53.162;6.788;2022-07-24T15:22:39;5.40;;;3.40;;
55633;SDS011;41504;53.162;6.788;2022-07-24T15:25:05;5.32;;;2.67;;
55633;SDS011;41504;53.162;6.788;2022-07-24T15:27:31;4.00;;;2.22;;
55633;SDS011;41504;53.162;6.788;2022-07-24T15:29:57;4.55;;;2.67;;
55633;SDS011;41504;53.162;6.788;2022-07-24T15:32:23;4.18;;;2.50;;
55633;SDS011;41504;53.162;6.788;2022-07-24T15:34:48;3.88;;;2.50;;
55633;SDS011;41504;53.162;6.788;2022-07-24T15:37:14;5.18;;;2.45;;
55633;SDS011;41504;53.162;6.788;2022-07-24T15:39:40;5.55;;;2.95;;
55633;SDS011;41504;53.162;6.788;2022-07-24T15:42:05;4.53;;;2.75;;